Time;durP1;ratioP1;P1;durP2;ratioP2;P2;SDS_P1;SDS_P2;PMS_P1;PMS_P2;Temp;Humidity;BMP_temperature;BMP_pressure;BME280_temperature;BME280_humidity;BME280_pressure;Samples;Min_cycle;Max_cycle;Signal;HPM_P1;HPM_P2
2023/09/14 00:01:30;;;;;;;3.75;1.65;;;12.10;99.90;;;;;;4984995;28;20072;-63
2023/09/14 00:03:56;;;;;;;7.10;1.70;;;12.10;99.90;;;;;;4972373;28;20161;-62
2023/09/14 00:06:21;;;;;;;3.20;1.60;;;12.10;99.90;;;;;;4987677;28;20038;-62
2023/09/14 00:08:47;;;;;;;5.13;1.50;;;12.00;99.90;;;;;;4990740;28;20058;-62
2023/09/14 00:11:13;;;;;;;2.65;1.30;;;12.10;99.90;;;;;;4979641;28;20072;-62
2023/09/14 00:13:38;;;;;;;4.05;1.70;;;12.00;99.90;;;;;;4971623;28;20787;-62
2023/09/14 00:16:04;;;;;;;4.50;1.80;;;12.00;99.90;;;;;;4991254;28;20034;-64
2023/09/14 00:18:30;;;;;;;3.97;1.92;;;12.00;99.90;;;;;;4990969;28;20123;-62
2023/09/14 00:20:57;;;;;;;3.42;1.98;;;12.00;99.90;;;;;;4976948;28;20060;-62
2023/09/14 00:23:23;;;;;;;4.72;1.73;;;12.00;99.90;;;;;;4990548;28;20056;-63
2023/09/14 00:25:49;;;;;;;3.00;1.50;;;11.90;99.90;;;;;;4988449;28;20506;-63
2023/09/14 00:28:14;;;;;;;5.32;1.65;;;11.90;99.90;;;;;;4970821;28;20129;-62
2023/09/14 00:30:40;;;;;;;6.10;1.55;;;11.90;99.90;;;;;;4992525;28;20121;-62
2023/09/14 00:33:06;;;;;;;3.40;1.40;;;11.90;99.90;;;;;;4986784;28;20034;-61
2023/09/14 00:35:31;;;;;;;3.70;1.23;;;11.90;99.90;;;;;;4991868;28;20097;-61
2023/09/14 00:37:57;;;;;;;2.65;1.13;;;11.90;99.90;;;;;;4974103;28;20041;-62
2023/09/14 00:40:23;;;;;;;1.40;1.00;;;11.80;99.90;;;;;;4973443;28;20109;-61
2023/09/14 00:42:53;;;;;;;4.18;1.83;;;11.80;99.90;;;;;;4973459;28;20058;-62
2023/09/14 00:45:22;;;;;;;2.65;1.30;;;11.80;99.90;;;;;;4989602;28;20040;-61
2023/09/14 00:47:53;;;;;;;1.77;1.20;;;11.80;99.90;;;;;;4991768;28;20456;-62
2023/09/14 00:50:20;;;;;;;2.40;1.30;;;11.70;99.90;;;;;;4973781;28;20046;-62
2023/09/14 00:52:51;;;;;;;4.57;1.70;;;11.70;99.90;;;;;;4983576;28;20125;-62
2023/09/14 00:55:17;;;;;;;5.97;1.97;;;11.70;99.90;;;;;;4991238;28;20045;-64
2023/09/14 00:57:44;;;;;;;4.88;1.80;;;11.70;99.90;;;;;;4991775;28;20037;-63
2023/09/14 01:00:11;;;;;;;2.70;1.70;;;11.70;99.90;;;;;;4974378;28;20042;-62
2023/09/14 01:02:40;;;;;;;5.68;2.08;;;11.80;99.90;;;;;;4990179;28;20072;-62
2023/09/14 01:05:07;;;;;;;4.22;2.00;;;11.70;99.90;;;;;;4970940;28;20053;-62
2023/09/14 01:07:36;;;;;;;6.15;2.30;;;11.80;99.90;;;;;;4991069;28;20046;-61
2023/09/14 01:10:04;;;;;;;6.22;2.00;;;11.70;99.90;;;;;;4991715;28;20688;-62
2023/09/14 01:12:30;;;;;;;6.13;2.20;;;11.80;99.90;;;;;;4989713;28;20038;-61
2023/09/14 01:15:08;;;;;;;8.23;2.40;;;11.70;99.90;;;;;;4990785;28;20169;-62
2023/09/14 01:17:50;;;;;;;6.05;2.45;;;11.70;99.90;;;;;;4990673;28;20034;-63
2023/09/14 01:20:35;;;;;;;4.33;2.00;;;11.70;99.90;;;;;;4985414;28;20049;-62
2023/09/14 01:23:29;;;;;;;5.30;1.85;;;11.70;99.90;;;;;;4965745;28;20089;-61
2023/09/14 01:25:55;;;;;;;6.78;2.10;;;11.60;99.90;;;;;;4972710;28;20046;-62
2023/09/14 01:28:21;;;;;;;4.53;1.95;;;11.60;99.90;;;;;;4972309;28;20050;-61
2023/09/14 01:30:46;;;;;;;3.40;1.50;;;11.60;99.90;;;;;;4977438;28;20496;-62
2023/09/14 01:33:14;;;;;;;3.15;1.30;;;11.50;99.90;;;;;;4986731;28;20373;-62
2023/09/14 01:35:46;;;;;;;2.55;1.30;;;11.50;99.90;;;;;;4989413;28;20053;-62
2023/09/14 01:38:13;;;;;;;2.50;1.40;;;11.40;99.90;;;;;;4991328;28;20081;-61
2023/09/14 01:40:40;;;;;;;3.58;1.50;;;11.40;99.90;;;;;;4989935;28;20027;-62
2023/09/14 01:43:07;;;;;;;2.83;1.48;;;11.40;99.90;;;;;;4986658;28;20049;-62
2023/09/14 01:45:33;;;;;;;3.72;1.77;;;11.30;99.90;;;;;;4972461;28;20137;-63
2023/09/14 01:48:02;;;;;;;3.42;1.50;;;11.30;99.90;;;;;;4990817;28;20604;-62
2023/09/14 01:50:28;;;;;;;4.45;2.05;;;11.30;99.90;;;;;;4971313;28;20093;-61
2023/09/14 01:52:55;;;;;;;3.97;1.90;;;11.20;99.90;;;;;;4990953;28;20042;-61
2023/09/14 01:55:20;;;;;;;3.83;1.60;;;11.20;99.90;;;;;;4990344;28;20055;-61
2023/09/14 01:57:46;;;;;;;3.83;1.63;;;11.20;99.90;;;;;;4990685;28;20034;-61
2023/09/14 02:00:12;;;;;;;4.85;1.70;;;11.20;99.90;;;;;;4970938;28;20391;-62
2023/09/14 02:02:38;;;;;;;3.72;2.30;;;11.20;99.90;;;;;;4966794;28;20050;-61
2023/09/14 02:05:04;;;;;;;5.90;2.08;;;11.20;99.90;;;;;;4972797;28;20041;-62
2023/09/14 02:07:30;;;;;;;4.78;1.60;;;11.20;99.90;;;;;;4969155;28;20157;-61
2023/09/14 02:09:55;;;;;;;4.60;1.60;;;11.10;99.90;;;;;;4966339;28;20049;-62
2023/09/14 02:12:21;;;;;;;3.75;1.65;;;11.10;99.90;;;;;;4990167;28;20092;-64
2023/09/14 02:14:47;;;;;;;4.53;2.05;;;11.10;99.90;;;;;;4984504;28;20077;-64
2023/09/14 02:17:13;;;;;;;4.65;1.73;;;11.00;99.90;;;;;;4986996;28;20583;-62
2023/09/14 02:19:38;;;;;;;4.78;1.60;;;11.00;99.90;;;;;;4988121;28;20044;-61
2023/09/14 02:22:04;;;;;;;2.72;1.27;;;11.00;99.90;;;;;;4972732;28;20068;-62
2023/09/14 02:24:29;;;;;;;4.15;1.42;;;11.00;99.90;;;;;;4990285;28;20133;-63
2023/09/14 02:26:55;;;;;;;3.58;1.23;;;11.00;99.90;;;;;;4990408;28;20096;-62
2023/09/14 02:29:21;;;;;;;2.78;1.30;;;10.90;99.90;;;;;;4988227;28;20045;-62
2023/09/14 02:31:46;;;;;;;2.00;1.30;;;10.90;99.90;;;;;;4988694;28;20034;-62
2023/09/14 02:34:12;;;;;;;1.65;1.40;;;10.90;99.90;;;;;;4969017;28;20408;-61
2023/09/14 02:36:38;;;;;;;3.55;1.75;;;10.80;99.90;;;;;;4971692;28;20040;-62
2023/09/14 02:39:04;;;;;;;3.35;1.50;;;10.80;99.90;;;;;;4982658;28;20080;-62
2023/09/14 02:41:30;;;;;;;3.63;1.83;;;10.80;99.90;;;;;;4984336;28;20035;-62
2023/09/14 02:43:56;;;;;;;3.95;1.60;;;10.80;99.90;;;;;;4972429;28;20042;-62
2023/09/14 02:46:22;;;;;;;4.35;1.60;;;10.80;99.90;;;;;;4987672;28;20034;-62
2023/09/14 02:48:47;;;;;;;3.75;1.65;;;10.80;99.90;;;;;;4994000;28;20084;-61
2023/09/14 02:51:13;;;;;;;4.10;1.70;;;10.80;99.90;;;;;;4991961;28;20038;-61
2023/09/14 02:53:38;;;;;;;5.38;1.88;;;10.80;99.90;;;;;;4993402;28;20041;-62
2023/09/14 02:56:10;;;;;;;4.35;2.10;;;10.80;99.90;;;;;;4976365;28;20116;-63
2023/09/14 02:58:37;;;;;;;4.90;2.25;;;10.80;99.90;;;;;;4994049;28;20553;-61
2023/09/14 03:01:09;;;;;;;6.35;2.15;;;10.90;99.90;;;;;;4990812;28;20447;-64
2023/09/14 03:03:39;;;;;;;6.25;2.45;;;10.90;99.90;;;;;;4983326;28;20049;-62
2023/09/14 03:06:05;;;;;;;6.72;2.28;;;10.90;99.90;;;;;;4993868;28;20047;-63
2023/09/14 03:08:32;;;;;;;6.80;2.35;;;10.90;99.90;;;;;;4993516;28;20049;-61
2023/09/14 03:10:58;;;;;;;4.10;2.28;;;10.90;99.90;;;;;;4992784;28;20508;-61
2023/09/14 03:13:24;;;;;;;3.67;1.80;;;10.80;99.90;;;;;;4992940;28;20041;-62
2023/09/14 03:15:57;;;;;;;3.50;1.77;;;10.80;99.90;;;;;;4993152;28;20038;-62
2023/09/14 03:18:23;;;;;;;5.28;1.80;;;10.80;99.90;;;;;;4957358;28;20048;-61
2023/09/14 03:20:55;;;;;;;5.63;1.73;;;10.70;99.90;;;;;;4992819;28;20114;-61
2023/09/14 03:23:23;;;;;;;5.82;1.92;;;10.70;99.90;;;;;;4979588;28;20046;-61
2023/09/14 03:25:50;;;;;;;3.47;1.90;;;10.70;99.90;;;;;;4984794;28;20464;-63
2023/09/14 03:28:16;;;;;;;3.58;1.83;;;10.70;99.90;;;;;;4976306;28;20046;-62
2023/09/14 03:30:42;;;;;;;3.85;2.13;;;10.70;99.90;;;;;;4984514;28;20034;-61
2023/09/14 03:33:09;;;;;;;4.25;1.95;;;10.70;99.90;;;;;;4993556;28;20049;-62
2023/09/14 03:35:34;;;;;;;4.53;1.88;;;10.60;99.90;;;;;;4991939;28;20045;-62
2023/09/14 03:38:01;;;;;;;6.68;2.45;;;10.70;99.90;;;;;;4993512;28;20404;-62
2023/09/14 03:40:27;;;;;;;3.80;2.15;;;10.70;99.90;;;;;;4991242;28;20030;-61
2023/09/14 03:42:52;;;;;;;5.00;1.90;;;10.60;99.90;;;;;;4986276;28;20456;-61
2023/09/14 03:45:18;;;;;;;5.07;1.98;;;10.60;99.90;;;;;;4971374;28;20050;-62
2023/09/14 03:47:44;;;;;;;6.25;2.28;;;10.60;99.90;;;;;;4969327;28;20121;-63
2023/09/14 03:50:10;;;;;;;4.40;2.03;;;10.50;99.90;;;;;;4973593;28;20473;-61
2023/09/14 03:52:37;;;;;;;4.90;2.00;;;10.50;99.90;;;;;;4973608;28;20401;-62
2023/09/14 03:55:03;;;;;;;3.63;1.98;;;10.50;99.90;;;;;;4990328;28;20047;-61
2023/09/14 03:57:29;;;;;;;4.15;2.15;;;10.50;99.90;;;;;;4970595;28;20034;-62
2023/09/14 03:59:55;;;;;;;4.63;1.70;;;10.50;99.90;;;;;;4989525;28;20520;-62
2023/09/14 04:02:21;;;;;;;4.35;2.00;;;10.50;99.90;;;;;;4990145;28;20038;-62
2023/09/14 04:04:47;;;;;;;10.23;2.22;;;10.40;99.90;;;;;;4979513;28;20129;-62
2023/09/14 04:07:12;;;;;;;3.42;1.95;;;10.40;99.90;;;;;;4975352;28;20050;-62
2023/09/14 04:09:38;;;;;;;2.45;1.60;;;10.40;99.90;;;;;;4991441;28;20413;-62
2023/09/14 04:12:05;;;;;;;4.43;1.90;;;10.40;99.90;;;;;;4974092;28;20572;-61
2023/09/14 04:14:30;;;;;;;7.00;1.80;;;10.40;99.90;;;;;;4990973;28;20042;-62
2023/09/14 04:16:57;;;;;;;4.88;1.95;;;10.40;99.90;;;;;;4990432;28;20113;-61
2023/09/14 04:19:27;;;;;;;6.40;2.08;;;10.40;99.90;;;;;;4991798;28;20046;-62
2023/09/14 04:21:53;;;;;;;4.95;1.98;;;10.60;99.90;;;;;;4989823;28;20049;-61
2023/09/14 04:24:19;;;;;;;4.85;2.03;;;10.30;99.90;;;;;;4991633;28;20042;-64
2023/09/14 04:26:45;;;;;;;5.78;1.92;;;10.30;99.90;;;;;;4974661;28;20049;-62
2023/09/14 04:29:11;;;;;;;4.93;2.15;;;10.30;99.90;;;;;;4991085;28;20046;-61
2023/09/14 04:31:37;;;;;;;6.72;2.10;;;10.30;99.90;;;;;;4989556;28;20049;-61
2023/09/14 04:34:02;;;;;;;4.45;1.98;;;10.30;99.90;;;;;;4984939;28;20125;-62
2023/09/14 04:36:28;;;;;;;3.17;1.67;;;10.30;99.90;;;;;;4982575;28;20075;-61
2023/09/14 04:38:54;;;;;;;2.72;1.70;;;10.30;99.90;;;;;;4974250;28;20038;-62
2023/09/14 04:41:19;;;;;;;3.95;2.00;;;10.30;99.90;;;;;;4986918;28;20031;-62
2023/09/14 04:43:45;;;;;;;4.00;1.60;;;10.30;99.90;;;;;;4991852;28;20113;-62
2023/09/14 04:46:10;;;;;;;5.15;1.77;;;10.30;99.90;;;;;;4986460;28;20227;-61
2023/09/14 04:48:41;;;;;;;5.18;1.50;;;10.20;99.90;;;;;;4973862;28;20054;-61
2023/09/14 04:51:07;;;;;;;3.30;2.00;;;10.20;99.90;;;;;;4970370;28;20130;-61
2023/09/14 04:53:33;;;;;;;2.85;1.60;;;10.20;99.90;;;;;;4973246;28;20513;-61
2023/09/14 04:55:59;;;;;;;2.90;1.52;;;10.20;99.90;;;;;;4973926;28;20081;-61
2023/09/14 04:58:26;;;;;;;2.25;1.40;;;10.10;99.90;;;;;;5030217;22;20049;-78
2023/09/14 05:00:52;;;;;;;3.35;1.48;;;10.20;99.90;;;;;;4973304;28;20129;-78
2023/09/14 05:03:18;;;;;;;4.82;1.60;;;10.20;99.90;;;;;;4956608;28;20134;-78
2023/09/14 05:05:53;;;;;;;3.33;1.60;;;10.10;99.90;;;;;;4974580;28;20450;-78
2023/09/14 05:08:19;;;;;;;2.92;1.63;;;10.20;99.90;;;;;;4972448;28;20063;-78
2023/09/14 05:10:44;;;;;;;2.33;1.60;;;10.20;99.90;;;;;;4969017;28;20536;-78
2023/09/14 05:13:10;;;;;;;3.72;1.80;;;10.20;99.90;;;;;;4993029;28;20038;-78
2023/09/14 05:15:36;;;;;;;5.82;1.75;;;10.40;99.90;;;;;;4958454;28;20042;-77
2023/09/14 05:18:02;;;;;;;3.97;1.98;;;10.50;99.90;;;;;;4974903;28;20096;-78
2023/09/14 05:20:29;;;;;;;8.02;2.10;;;10.20;99.90;;;;;;4957313;28;20042;-78
2023/09/14 05:22:56;;;;;;;6.30;2.03;;;10.20;99.90;;;;;;4958796;28;20050;-77
2023/09/14 05:25:25;;;;;;;5.50;1.75;;;10.20;99.90;;;;;;4959198;28;20042;-78
2023/09/14 05:27:51;;;;;;;3.25;1.60;;;10.10;99.90;;;;;;4972149;28;20082;-77
2023/09/14 05:30:21;;;;;;;6.65;1.70;;;10.10;99.90;;;;;;4987993;28;20089;-77
2023/09/14 05:32:47;;;;;;;3.30;1.88;;;10.10;99.90;;;;;;4956692;28;20081;-78
2023/09/14 05:35:13;;;;;;;3.95;1.70;;;10.10;99.90;;;;;;4969844;28;20051;-78
2023/09/14 05:37:38;;;;;;;4.45;1.92;;;10.10;99.90;;;;;;4972602;28;20038;-78
2023/09/14 05:40:12;;;;;;;2.95;1.70;;;10.10;99.90;;;;;;4957332;28;20035;-78
2023/09/14 05:42:41;;;;;;;3.78;1.90;;;10.10;99.90;;;;;;4972193;28;20185;-77
2023/09/14 05:45:08;;;;;;;2.95;1.80;;;10.10;99.90;;;;;;4953534;28;20109;-78
2023/09/14 05:47:53;;;;;;;4.93;1.90;;;10.10;99.90;;;;;;4955159;28;20076;-79
2023/09/14 05:50:21;;;;;;;3.15;1.60;;;10.10;99.90;;;;;;4971387;28;20056;-78
2023/09/14 05:52:51;;;;;;;4.30;2.13;;;10.10;99.90;;;;;;4958483;28;20578;-77
2023/09/14 05:55:19;;;;;;;4.28;2.00;;;10.10;99.90;;;;;;4971936;28;20165;-78
2023/09/14 05:57:54;;;;;;;2.83;1.80;;;10.20;99.90;;;;;;4973350;28;20066;-78
2023/09/14 06:00:20;;;;;;;3.85;1.80;;;10.20;99.90;;;;;;4953096;28;20066;-78
2023/09/14 06:02:45;;;;;;;4.15;1.80;;;10.20;99.90;;;;;;4965693;28;20049;-78
2023/09/14 06:05:11;;;;;;;2.85;2.10;;;10.40;99.90;;;;;;4980485;28;20069;-78
2023/09/14 06:07:37;;;;;;;3.72;1.90;;;10.20;99.90;;;;;;4954354;28;20085;-77
2023/09/14 06:10:04;;;;;;;6.97;2.20;;;10.20;99.90;;;;;;4970921;28;20050;-78
2023/09/14 06:12:30;;;;;;;5.13;2.25;;;10.20;99.90;;;;;;4981049;28;20092;-77
2023/09/14 06:14:57;;;;;;;7.70;1.95;;;10.50;99.90;;;;;;4989742;28;20038;-77
2023/09/14 06:17:23;;;;;;;4.68;1.55;;;10.30;99.90;;;;;;4958649;28;20049;-77
2023/09/14 06:19:48;;;;;;;3.17;1.60;;;10.30;99.90;;;;;;4986606;28;20042;-77
2023/09/14 06:22:14;;;;;;;5.00;1.88;;;10.30;99.90;;;;;;4954313;28;20069;-77
2023/09/14 06:24:41;;;;;;;4.85;2.10;;;10.40;99.90;;;;;;4957655;28;20046;-77
2023/09/14 06:27:06;;;;;;;4.97;1.92;;;10.40;99.90;;;;;;4988744;28;20490;-78
2023/09/14 06:29:35;;;;;;;5.43;2.03;;;10.50;99.90;;;;;;4970527;28;20150;-78
2023/09/14 06:32:00;;;;;;;5.55;1.95;;;10.50;99.90;;;;;;4972317;28;20046;-77
2023/09/14 06:34:26;;;;;;;6.03;2.20;;;10.60;99.90;;;;;;4989129;28;20398;-77
2023/09/14 06:36:51;;;;;;;2.83;1.70;;;10.60;99.90;;;;;;4971965;28;20491;-77
2023/09/14 06:39:17;;;;;;;3.47;1.70;;;10.60;99.90;;;;;;4969003;28;20117;-77
2023/09/14 06:41:43;;;;;;;5.82;2.15;;;10.60;99.90;;;;;;4969569;28;20047;-77
2023/09/14 06:44:08;;;;;;;4.97;2.10;;;10.70;99.90;;;;;;4972119;28;20502;-76
2023/09/14 06:46:36;;;;;;;6.32;2.10;;;10.70;99.90;;;;;;4986218;28;20040;-77
2023/09/14 06:49:02;;;;;;;4.43;2.17;;;10.70;99.90;;;;;;4966564;28;20540;-77
2023/09/14 06:51:28;;;;;;;5.68;2.10;;;10.80;99.90;;;;;;4973537;28;20042;-77
2023/09/14 06:53:54;;;;;;;6.65;2.30;;;10.90;99.90;;;;;;4988243;28;20042;-76
2023/09/14 06:56:19;;;;;;;6.18;2.40;;;10.90;99.90;;;;;;4988189;28;20121;-77
2023/09/14 06:58:45;;;;;;;7.68;2.50;;;11.00;99.90;;;;;;4989012;28;20089;-77
2023/09/14 07:01:11;;;;;;;7.15;3.53;;;11.20;99.90;;;;;;4980543;28;20546;-78
2023/09/14 07:03:39;;;;;;;12.13;3.40;;;11.10;99.90;;;;;;4989698;28;20050;-77
2023/09/14 07:06:07;;;;;;;10.02;3.35;;;11.10;99.90;;;;;;4970443;28;20046;-77
2023/09/14 07:08:32;;;;;;;12.10;3.50;;;11.20;99.90;;;;;;4957565;28;20125;-77
2023/09/14 07:10:58;;;;;;;17.48;4.50;;;11.40;99.90;;;;;;4967922;28;20481;-78
2023/09/14 07:13:24;;;;;;;11.73;3.80;;;11.40;99.90;;;;;;4974514;28;20050;-76
2023/09/14 07:15:51;;;;;;;12.75;3.80;;;11.40;99.90;;;;;;4987506;28;20037;-77
2023/09/14 07:18:32;;;;;;;13.70;3.60;;;11.50;99.90;;;;;;4969816;28;20084;-77
2023/09/14 07:20:59;;;;;;;10.20;3.70;;;11.60;99.90;;;;;;4972771;28;20081;-77
2023/09/14 07:23:25;;;;;;;14.02;3.85;;;11.60;99.90;;;;;;4958028;28;20108;-77
2023/09/14 07:25:51;;;;;;;12.95;4.15;;;11.60;99.90;;;;;;4973922;28;20486;-77
2023/09/14 07:28:18;;;;;;;12.13;3.83;;;11.70;99.90;;;;;;4973759;28;20589;-77
2023/09/14 07:30:44;;;;;;;12.55;4.05;;;11.80;99.90;;;;;;4983972;28;20038;-77
2023/09/14 07:33:11;;;;;;;16.17;4.72;;;11.80;99.90;;;;;;4957173;28;20049;-77
2023/09/14 07:35:42;;;;;;;13.18;4.10;;;11.90;99.90;;;;;;4976545;28;20282;-77
2023/09/14 07:38:09;;;;;;;14.75;4.25;;;12.00;99.90;;;;;;4992263;28;20046;-77
2023/09/14 07:40:35;;;;;;;13.18;4.68;;;12.10;99.90;;;;;;4974693;28;20533;-77
2023/09/14 07:43:01;;;;;;;11.48;3.88;;;12.20;99.90;;;;;;4971594;28;20552;-77
2023/09/14 07:45:30;;;;;;;17.17;4.22;;;12.20;99.90;;;;;;4972249;28;20042;-77
2023/09/14 07:47:55;;;;;;;9.88;3.80;;;12.30;99.90;;;;;;4987436;28;20120;-77
2023/09/14 07:50:21;;;;;;;9.15;3.80;;;12.20;99.90;;;;;;4974209;28;20093;-77
2023/09/14 07:52:47;;;;;;;9.70;3.85;;;12.40;99.90;;;;;;4987573;28;20129;-77
2023/09/14 07:55:13;;;;;;;17.98;4.63;;;12.50;99.90;;;;;;4979089;28;20118;-77
2023/09/14 07:57:39;;;;;;;10.27;3.60;;;12.60;99.90;;;;;;4973438;28;20065;-78
2023/09/14 08:00:06;;;;;;;8.98;3.38;;;12.70;99.90;;;;;;4971397;28;20082;-77
2023/09/14 08:02:32;;;;;;;8.15;3.15;;;12.80;99.90;;;;;;4959006;28;20518;-77
2023/09/14 08:05:03;;;;;;;9.05;3.40;;;12.90;99.90;;;;;;4975726;28;20046;-77
2023/09/14 08:07:28;;;;;;;10.80;3.05;;;12.90;99.90;;;;;;4976624;28;20602;-77
2023/09/14 08:09:54;;;;;;;11.98;4.20;;;13.00;99.90;;;;;;4972896;28;20078;-77
2023/09/14 08:12:19;;;;;;;7.35;3.15;;;13.10;99.90;;;;;;4968200;28;20088;-77
2023/09/14 08:14:45;;;;;;;7.75;3.00;;;13.10;99.90;;;;;;4994366;28;20491;-77
2023/09/14 08:17:11;;;;;;;10.20;3.20;;;13.20;99.90;;;;;;4976353;28;20097;-77
2023/09/14 08:19:37;;;;;;;11.07;3.05;;;13.30;99.90;;;;;;4993024;28;20045;-77
2023/09/14 08:22:03;;;;;;;12.90;3.13;;;13.30;99.90;;;;;;4991582;28;20072;-77
2023/09/14 08:24:29;;;;;;;10.90;2.92;;;13.40;99.90;;;;;;4975945;28;20104;-77
2023/09/14 08:26:55;;;;;;;9.20;2.72;;;13.50;99.90;;;;;;4983270;28;20352;-77
2023/09/14 08:29:21;;;;;;;6.78;2.67;;;13.80;99.90;;;;;;4987588;28;20462;-77
2023/09/14 08:31:50;;;;;;;6.72;2.60;;;13.60;99.90;;;;;;4989257;28;20031;-77
2023/09/14 08:34:15;;;;;;;7.82;2.25;;;13.70;99.90;;;;;;4974766;28;20042;-77
2023/09/14 08:36:42;;;;;;;6.05;2.30;;;13.70;99.90;;;;;;4989917;28;20037;-77
2023/09/14 08:39:13;;;;;;;8.70;2.20;;;13.80;99.90;;;;;;4958962;28;20129;-77
2023/09/14 08:41:41;;;;;;;10.38;2.55;;;13.90;99.90;;;;;;4975273;28;20363;-78
2023/09/14 08:44:07;;;;;;;8.02;2.65;;;14.00;99.90;;;;;;4968667;28;20042;-77
2023/09/14 08:46:38;;;;;;;8.82;2.85;;;14.00;99.90;;;;;;4972956;28;20042;-78
2023/09/14 08:49:05;;;;;;;6.30;2.33;;;14.10;99.90;;;;;;4957741;28;20094;-77
2023/09/14 08:51:33;;;;;;;9.80;2.40;;;14.20;99.90;;;;;;4993436;28;20097;-77
2023/09/14 08:53:59;;;;;;;11.32;2.20;;;14.20;99.90;;;;;;4960062;28;20038;-77
2023/09/14 08:56:26;;;;;;;7.50;2.50;;;14.20;99.90;;;;;;4992617;28;20030;-77
2023/09/14 08:58:52;;;;;;;9.30;2.67;;;14.30;99.90;;;;;;4970742;28;20050;-77
2023/09/14 09:01:19;;;;;;;5.75;2.00;;;14.30;99.90;;;;;;4955747;28;20042;-77
2023/09/14 09:03:46;;;;;;;10.60;2.40;;;14.50;99.90;;;;;;4993982;28;20034;-77
2023/09/14 09:06:12;;;;;;;6.47;2.47;;;14.50;99.90;;;;;;4960760;28;20441;-77
2023/09/14 09:08:41;;;;;;;9.75;2.40;;;14.60;99.90;;;;;;4975094;28;20048;-77
2023/09/14 09:11:07;;;;;;;5.60;2.03;;;14.60;99.90;;;;;;4993412;28;20089;-78
2023/09/14 09:13:41;;;;;;;8.50;2.53;;;14.70;99.90;;;;;;4993511;28;20449;-77
2023/09/14 09:16:07;;;;;;;12.48;2.47;;;14.80;99.90;;;;;;4971799;28;20046;-77
2023/09/14 09:18:35;;;;;;;8.07;2.40;;;15.00;99.90;;;;;;4992455;28;20153;-77
2023/09/14 09:21:05;;;;;;;8.25;2.38;;;15.20;99.90;;;;;;4974638;28;20038;-77
2023/09/14 09:23:34;;;;;;;8.82;2.50;;;15.30;99.90;;;;;;4975111;28;20046;-77
2023/09/14 09:26:01;;;;;;;6.65;2.80;;;15.60;99.90;;;;;;4971773;28;20042;-77
2023/09/14 09:28:30;;;;;;;;;;;15.70;99.90;;;;;;4990604;28;20030;-77
2023/09/14 09:30:56;;;;;;;8.77;2.40;;;15.90;99.90;;;;;;4957729;28;20644;-77
2023/09/14 09:33:36;;;;;;;9.60;2.42;;;16.10;99.90;;;;;;4974890;28;20049;-77
2023/09/14 09:36:14;;;;;;;8.13;2.65;;;16.40;99.90;;;;;;4988033;28;20034;-77
2023/09/14 09:38:40;;;;;;;9.75;2.53;;;16.60;99.90;;;;;;4974697;28;20034;-77
2023/09/14 09:41:10;;;;;;;9.32;2.28;;;16.80;99.90;;;;;;4955960;28;20038;-78
2023/09/14 09:43:41;;;;;;;6.53;2.58;;;17.00;99.90;;;;;;4958847;28;20064;-78
2023/09/14 09:46:17;;;;;;;10.82;2.63;;;17.20;99.90;;;;;;4971939;28;20050;-77
2023/09/14 09:48:43;;;;;;;7.28;1.90;;;17.50;99.90;;;;;;4967266;28;20034;-78
2023/09/14 09:51:11;;;;;;;7.20;2.15;;;17.60;99.90;;;;;;4972659;28;21180;-78
2023/09/14 09:53:58;;;;;;;;;;;17.70;99.90;;;;;;4958803;28;20038;-78
2023/09/14 09:56:26;;;;;;;9.10;2.38;;;17.90;99.90;;;;;;4972144;28;19918;-78
2023/09/14 09:58:53;;;;;;;3.72;1.83;;;18.20;99.90;;;;;;4974615;28;20161;-77
2023/09/14 10:01:22;;;;;;;;;;;18.20;99.90;;;;;;4974231;28;20426;-78
2023/09/14 10:03:48;;;;;;;8.30;2.10;;;18.30;99.90;;;;;;4975112;28;20008;-78
2023/09/14 10:06:14;;;;;;;8.25;2.05;;;18.50;99.90;;;;;;4958493;28;20077;-78
2023/09/14 10:08:52;;;;;;;;;;;18.50;99.90;;;;;;4957163;28;20113;-78
2023/09/14 10:11:19;;;;;;;5.80;2.35;;;18.60;99.90;;;;;;4951007;28;19925;-78
2023/09/14 10:13:49;;;;;;;7.93;1.98;;;18.70;99.90;;;;;;4975233;28;20050;-78
2023/09/14 10:16:23;;;;;;;8.13;2.38;;;18.90;99.90;;;;;;4974576;28;20038;-78
2023/09/14 10:18:56;;;;;;;10.02;2.20;;;19.00;99.90;;;;;;4968811;28;20046;-78
2023/09/14 10:21:24;;;;;;;7.22;2.17;;;19.10;99.90;;;;;;4974542;28;20050;-77
2023/09/14 10:23:50;;;;;;;9.77;2.20;;;19.10;99.90;;;;;;4992074;28;20052;-78
2023/09/14 10:26:16;;;;;;;6.88;1.92;;;19.20;99.90;;;;;;4958157;28;20046;-78
2023/09/14 10:28:43;;;;;;;;;;;19.30;99.90;;;;;;4974931;28;20115;-78
2023/09/14 10:31:09;;;;;;;;;;;19.50;99.90;;;;;;4974266;28;19965;-78
2023/09/14 10:33:36;;;;;;;;;;;19.60;99.90;;;;;;4974477;28;19976;-78
2023/09/14 10:36:03;;;;;;;;;;;19.70;99.90;;;;;;4964707;28;19918;-78
2023/09/14 10:38:32;;;;;;;;;;;19.80;99.90;;;;;;4974994;28;19964;-78
2023/09/14 10:40:58;;;;;;;;;;;19.80;99.90;;;;;;4968461;28;19980;-78
2023/09/14 10:43:23;;;;;;;;;;;19.90;99.90;;;;;;4958370;28;19921;-78
2023/09/14 10:45:58;;;;;;;8.38;2.40;;;20.00;99.90;;;;;;4973599;28;19924;-78
2023/09/14 10:48:29;;;;;;;7.05;2.60;;;20.20;99.90;;;;;;4956166;28;20056;-78
2023/09/14 10:51:01;;;;;;;6.80;2.30;;;20.40;99.90;;;;;;4958210;28;20038;-78
2023/09/14 10:53:28;;;;;;;5.93;2.35;;;20.70;99.90;;;;;;4992127;28;20038;-78
2023/09/14 10:55:55;;;;;;;7.68;2.63;;;20.80;99.90;;;;;;4971109;28;20069;-78
2023/09/14 10:58:20;;;;;;;7.38;2.50;;;21.00;99.90;;;;;;4987515;28;20043;-78
2023/09/14 11:00:57;;;;;;;8.85;2.60;;;20.90;99.90;;;;;;4972747;28;20046;-78
2023/09/14 11:03:25;;;;;;;9.50;2.70;;;21.00;99.90;;;;;;4973743;28;20101;-79
2023/09/14 11:05:52;;;;;;;6.57;2.45;;;21.10;99.90;;;;;;4974499;28;20035;-78
2023/09/14 11:08:19;;;;;;;7.00;2.42;;;21.00;99.90;;;;;;4992741;28;20035;-78
2023/09/14 11:10:56;;;;;;;9.18;2.80;;;21.20;99.90;;;;;;4959029;28;20076;-78
2023/09/14 11:13:26;;;;;;;6.85;2.38;;;21.20;99.90;;;;;;4958851;28;20039;-78
2023/09/14 11:16:17;;;;;;;8.85;2.67;;;21.20;99.90;;;;;;4962320;28;20045;-78
2023/09/14 11:18:52;;;;;;;;;;;21.00;98.60;;;;;;4954951;28;20050;-78
2023/09/14 11:21:42;;;;;;;7.00;2.28;;;20.60;97.60;;;;;;4974786;28;19928;-78
2023/09/14 11:24:10;;;;;;;6.43;2.35;;;20.40;99.00;;;;;;4961587;28;20030;-78
2023/09/14 11:26:42;;;;;;;8.82;2.78;;;20.20;99.90;;;;;;4961252;28;20122;-78
2023/09/14 11:29:11;;;;;;;7.57;2.45;;;20.10;99.90;;;;;;4990633;28;20034;-78
2023/09/14 11:31:39;;;;;;;11.93;2.97;;;20.20;99.90;;;;;;4976483;28;20050;-78
2023/09/14 11:34:10;;;;;;;6.75;2.60;;;20.30;99.90;;;;;;4994207;28;20042;-78
2023/09/14 11:36:37;;;;;;;8.88;2.95;;;20.50;99.60;;;;;;4969809;28;20046;-78
2023/09/14 11:39:10;;;;;;;8.88;2.38;;;20.70;99.90;;;;;;4994687;28;20814;-78
2023/09/14 11:41:41;;;;;;;9.55;3.10;;;20.70;99.20;;;;;;4975244;28;20200;-78
2023/09/14 11:44:07;;;;;;;7.80;2.42;;;20.50;99.20;;;;;;4993204;28;20039;-78
2023/09/14 11:46:37;;;;;;;9.20;2.80;;;20.30;99.40;;;;;;4975532;28;20085;-78
2023/09/14 11:49:03;;;;;;;6.70;2.30;;;20.30;99.50;;;;;;4976704;28;20050;-78
2023/09/14 11:51:30;;;;;;;7.72;2.63;;;20.10;99.60;;;;;;4972868;28;20079;-78
2023/09/14 11:53:57;;;;;;;11.65;2.70;;;20.10;99.20;;;;;;4967968;28;20392;-77
2023/09/14 11:56:31;;;;;;;7.90;2.58;;;20.30;99.30;;;;;;4958426;28;20041;-78
2023/09/14 11:59:00;;;;;;;8.27;2.58;;;20.40;99.20;;;;;;4975500;28;20038;-78
2023/09/14 12:01:27;;;;;;;13.25;2.97;;;20.60;99.10;;;;;;4959431;28;20070;-78
2023/09/14 12:03:55;;;;;;;8.20;2.97;;;20.70;99.10;;;;;;4954469;28;20050;-78
2023/09/14 12:06:22;;;;;;;6.85;2.92;;;20.70;99.10;;;;;;4972006;28;20085;-78
2023/09/14 12:08:48;;;;;;;7.57;2.58;;;20.90;99.30;;;;;;4977147;28;20410;-78
2023/09/14 12:11:16;;;;;;;9.07;2.75;;;21.00;99.30;;;;;;4972063;28;20042;-78
2023/09/14 12:13:54;;;;;;;6.13;2.40;;;21.00;99.10;;;;;;4959769;28;20087;-78
2023/09/14 12:16:24;;;;;;;7.65;2.65;;;21.10;98.70;;;;;;4955221;28;20039;-78
2023/09/14 12:18:52;;;;;;;7.88;3.05;;;21.20;98.60;;;;;;4976476;28;20407;-78
2023/09/14 12:21:21;;;;;;;7.20;2.33;;;21.40;98.40;;;;;;4976015;28;20042;-78
2023/09/14 12:23:49;;;;;;;6.03;2.47;;;21.40;98.10;;;;;;4959855;28;20049;-78
2023/09/14 12:26:26;;;;;;;8.80;2.58;;;21.40;97.80;;;;;;4973088;28;20050;-78
2023/09/14 12:28:53;;;;;;;12.25;2.97;;;21.40;97.60;;;;;;4987669;28;20043;-78
2023/09/14 12:31:20;;;;;;;5.90;2.25;;;21.50;97.80;;;;;;4973797;28;20052;-78
2023/09/14 12:33:46;;;;;;;7.45;3.42;;;21.30;97.40;;;;;;4960512;28;20049;-77
2023/09/14 12:36:11;;;;;;;8.60;2.70;;;21.30;97.40;;;;;;4972063;28;20030;-78
2023/09/14 12:38:38;;;;;;;6.32;2.42;;;21.20;97.50;;;;;;4976209;28;20049;-78
2023/09/14 12:41:05;;;;;;;6.30;2.45;;;21.30;97.40;;;;;;4988907;28;20398;-78
2023/09/14 12:43:31;;;;;;;8.80;2.83;;;21.30;97.80;;;;;;4968082;28;20126;-78
2023/09/14 12:45:57;;;;;;;7.28;2.53;;;21.30;97.50;;;;;;4959193;28;20062;-78
2023/09/14 12:48:28;;;;;;;7.85;2.50;;;21.30;97.50;;;;;;4959128;28;20081;-78
2023/09/14 12:50:56;;;;;;;8.10;2.77;;;21.00;96.70;;;;;;4976040;28;20042;-78